Portada
METAR-TAF:

METAR-TAF

Aeroports :

Burayda, Aràbia Saudita

latitud: 26-18N, longitud: 043-46E, altitud: 648 m

Observació

L'informe es va fer fa 1 hora i 14 minuts, a les 10:00 UTC
Vent 4 kt del Sud
Temperatura 32°C
Humitat 29%
Pressió 1018 hPa
Visibilitat 10 km o més
sense núvols per sota de 1500 mi sense presència de cumulonimbus.

METAR: OEGS 221000Z 17004KT CAVOK 32/12 Q1018

Hora: 14:14 (11:14 UTC)

Pronòstic

L'informe es va fer fa 12 hores i 14 minuts, a les 23:00 UTC
Pronòstic vàlid del 22 a les 00 UTC al 23 a les 06 UTC
Vent 6 kt del Nord-Est
Visibilitat 10 km o més
sense núvols per sota de 1500 mi sense presència de cumulonimbus.
Evolucionant progressivament
l' 22 a les 06 UTC al 22 a les 08 UTC
Vent 11 kt del Sud-Oest
Evolucionant progressivament
l' 22 a les 18 UTC al 22 a les 20 UTC
Vent 5 kt del Nord/Nord-Est

TAF: OEGS 212300Z 2200/2306 04006KT CAVOK BECMG 2206/2208 23011KT BECMG 2218/2220 03005KT

Observacions i pronòstics meteorològics de més de 4000 aeroports (METAR i TAF).

Les estacions disponibles són els punts grocs i vermells al mapa.

Posi el ratolí al punt desitjat per veure el nom de l'estació.

Feu clic per veure les observacions i els pronòstics meteorològics.

Per canviar el mapa: feu clic els botons verds amb una creu de color negre per apropar; al botó verd amb un guió per allunyar la imatge; o en les fletxes verdes per a mapes adjacents.


METAR-TAF: